Wake Forest, NC

4:58 PM EDT on May 29, 2015 (GMT -0400)
Wake Forest | | Change Station
CLOSE
Current Station
Personal Weather Station
Location: Wake Forest, NC
Elevation: 344 ft
Nearby Weather Stations

Elev 344 ft 35.98 °N, 78.53 °W | Updated 7 minutes ago

Clear
Clear
85.3 °F
Feels Like 86 °F
N
2.2
Wind Variable Wind from SSE

Today
High -- | Low -- °F
--% Chance of Precip.
Yesterday
High -- | Low -- °F
Precip. -- in
6:00 AM 8:23 PM
Waxing Gibbous, 86% visible
Pressure 30.20 in
Visibility 10.0 miles
Clouds Clear
Heat Index 86 °F
Dew Point 62 °F
Humidity 45%
Rainfall 0.00 in
Snow Depth Not available.
UV 6 out of 12
Pollen 7.10 out of 12
Air Quality Not available.
Flu Activity No Activity
METAR KLHZ 292035Z AUTO 14005KT 10SM CLR 29/15 A3020 RMK AO2

More Conditions Fewer Conditions

Pressure 30.20 in
Visibility 10.0 miles
Clouds Clear
Heat Index 86 °F
Dew Point 62 °F
Humidity 45%
Rainfall 0.00 in
Snow Depth Not available.
UV 6 out of 12
Pollen 7.10 out of 12
Air Quality Not available.
Flu Activity No Activity
METAR KLHZ 292035Z AUTO 14005KT 10SM CLR 29/15 A3020 RMK AO2

More Conditions Fewer Conditions

10-Day Weather Forecast

Almanac

Astronomy

May. 29, 2015 Rise Set
Actual Time
Civil Twilight
Nautical Twilight
Astronomical Twilight
Moon
Length of Visible Light
Length of Day
Tomorrow will be .
, % of the Moon is Illuminated

Today's Extremes

State Highs State Lows

Community

WunderPhotos

Upload Photos

1,825,351 photos uploaded!

WunderBlogs® & News

Nearby

Air Quality

  Air Quality AQ Index Pollutant
Not available.

Snow Depth

Station Depth Elevation

Earthquake Activity

City Distance Mag. Time & Date
Minimum magnitude displayed is 2.5.

Coastal Water Temperatures

Place Temperature

Stations

Nearby Weather Stations

Station Location Temp. Windchill Dew Point Humidity Wind Precip. Elev Updated Type